createdAt,value
2023-05-05T05:44:17.904Z,97104.91
2023-05-05T05:46:21.077Z,97103.63
2023-05-05T05:48:28.257Z,97105.09
2023-05-05T05:50:31.246Z,97100.31
2023-05-05T05:52:36.049Z,97109.34
2023-05-05T05:54:38.893Z,97115.13
2023-05-05T05:56:41.652Z,97110.53
2023-05-05T05:58:45.211Z,97109.91
2023-05-05T06:00:49.363Z,97111.72
2023-05-05T06:02:52.383Z,97107.03
2023-05-05T06:04:55.233Z,97119.47
2023-05-05T06:06:58.424Z,97114.69
2023-05-05T06:09:01.263Z,97117.47
2023-05-05T06:11:04.212Z,97110.81
2023-05-05T06:13:07.081Z,97113.25
2023-05-05T06:15:11.049Z,97116.28
2023-05-05T06:17:15.364Z,97111.25
2023-05-05T06:19:18.521Z,97118.22
2023-05-05T06:21:21.483Z,97107.56
2023-05-05T06:23:24.303Z,97111.16
2023-05-05T06:25:27.727Z,97115.31
2023-05-05T06:27:33.358Z,97113.28
2023-05-05T06:29:36.227Z,97112.31
2023-05-05T06:31:39.217Z,97108.16
2023-05-05T06:33:43.653Z,97116.03
2023-05-05T06:35:47.750Z,97112.13
2023-05-05T06:37:50.914Z,97115.91
2023-05-05T06:39:53.773Z,97112.00
2023-05-05T06:41:56.763Z,97116.16
2023-05-05T06:43:59.590Z,97109.00
2023-05-05T06:46:02.575Z,97119.56
2023-05-05T06:48:05.822Z,97113.69
2023-05-05T06:50:10.777Z,97113.19
2023-05-05T06:52:13.925Z,97111.06
2023-05-05T06:54:16.810Z,97111.88
2023-05-05T06:56:22.139Z,97111.06
2023-05-05T06:58:25.221Z,97101.63
2023-05-05T07:00:28.150Z,97110.75
2023-05-05T07:02:30.966Z,97117.75
2023-05-05T07:04:33.977Z,97114.81
2023-05-05T07:06:39.223Z,97108.97
2023-05-05T07:08:42.128Z,97102.28
2023-05-05T07:10:44.872Z,97099.91
2023-05-05T07:12:47.728Z,97107.16
2023-05-05T07:14:50.993Z,97099.91
2023-05-05T07:16:54.641Z,97107.66
2023-05-05T07:18:57.471Z,97096.56
2023-05-05T07:21:02.373Z,97104.06
2023-05-05T07:23:09.368Z,97100.81
2023-05-05T07:25:12.401Z,97104.56
2023-05-05T07:27:15.480Z,97092.22
2023-05-05T07:29:18.465Z,97092.22
2023-05-05T07:31:21.959Z,97092.53
2023-05-05T07:33:24.858Z,97086.09
2023-05-05T07:35:27.655Z,97095.75
2023-05-05T07:37:30.488Z,97088.84
2023-05-05T07:39:35.221Z,97082.97
2023-05-05T07:41:38.101Z,97082.72
2023-05-05T07:43:44.215Z,97084.09
2023-05-05T07:45:47.723Z,97078.47
2023-05-05T07:47:50.716Z,97085.47
2023-05-05T07:49:53.562Z,97085.22
2023-05-05T07:51:56.714Z,97087.09
2023-05-05T07:54:02.359Z,97088.72
2023-05-05T07:56:09.041Z,97086.53
2023-05-05T07:58:12.317Z,97084.66
2023-05-05T08:00:16.111Z,97080.09
2023-05-05T08:02:19.016Z,97079.84
2023-05-05T08:04:21.985Z,97079.59
2023-05-05T08:06:25.181Z,97076.66
2023-05-05T08:08:27.971Z,97077.47
2023-05-05T08:10:30.757Z,97078.53
2023-05-05T08:12:37.264Z,97073.41
2023-05-05T08:14:42.328Z,97069.34
2023-05-05T08:16:45.319Z,97078.47
2023-05-05T08:18:48.097Z,97067.41
2023-05-05T08:20:52.087Z,97071.97
2023-05-05T08:22:55.278Z,97073.59
2023-05-05T08:24:58.103Z,97071.97
2023-05-05T08:27:01.542Z,97075.22
2023-05-05T08:29:05.761Z,97066.94
2023-05-05T08:31:09.108Z,97068.78
2023-05-05T08:33:11.999Z,97073.91
2023-05-05T08:35:15.260Z,97071.47
2023-05-05T08:37:18.903Z,97071.47
2023-05-05T08:39:21.735Z,97070.44
2023-05-05T08:41:24.727Z,97070.16
2023-05-05T08:43:30.123Z,97066.66
2023-05-05T08:45:34.304Z,97065.34
2023-05-05T08:47:39.103Z,97065.66
2023-05-05T08:49:46.037Z,97054.66
2023-05-05T08:51:49.736Z,97063.53
2023-05-05T08:53:58.725Z,97059.22
2023-05-05T08:56:03.767Z,97057.91
2023-05-05T08:58:07.282Z,97054.97
2023-05-05T09:00:12.000Z,97047.22
2023-05-05T09:02:17.821Z,97057.16
2023-05-05T09:04:21.049Z,97044.53
2023-05-05T09:06:26.818Z,97042.09
2023-05-05T09:08:30.633Z,97043.97
2023-05-05T09:10:34.532Z,97046.41
2023-05-05T09:12:40.351Z,97043.19
2023-05-05T09:14:43.443Z,97041.66
2023-05-05T09:16:46.400Z,97044.91
2023-05-05T09:18:50.546Z,97041.13
2023-05-05T09:20:53.459Z,97037.69
2023-05-05T09:22:58.006Z,97042.31
2023-05-05T09:25:00.806Z,97047.16
2023-05-05T09:27:22.690Z,97044.22
2023-05-05T09:29:25.565Z,97046.91
2023-05-05T09:31:29.197Z,97048.28
2023-05-05T09:33:32.689Z,97042.63
2023-05-05T09:35:54.647Z,97048.59
2023-05-05T09:37:59.479Z,97036.19
2023-05-05T09:40:02.462Z,97041.91
2023-05-05T09:42:05.660Z,97037.88
2023-05-05T09:44:08.932Z,97033.09
2023-05-05T09:46:11.830Z,97036.06
2023-05-05T09:48:26.599Z,97030.19
2023-05-05T09:50:32.527Z,97024.03
2023-05-05T09:52:37.279Z,97022.72
2023-05-05T09:54:40.238Z,97022.22
2023-05-05T09:56:44.038Z,97021.69
2023-05-05T09:58:47.027Z,97015.28
2023-05-05T10:00:51.435Z,97016.66
2023-05-05T10:03:03.891Z,97013.44
2023-05-05T10:05:12.952Z,97013.72
2023-05-05T10:07:25.154Z,97009.16
2023-05-05T10:09:31.635Z,97006.19
2023-05-05T10:11:35.327Z,96998.41
2023-05-05T10:13:42.098Z,97004.91
2023-05-05T10:15:46.887Z,96994.69
2023-05-05T10:18:05.974Z,97002.25
2023-05-05T10:20:14.048Z,97006.28
2023-05-05T10:22:18.162Z,97002.53
2023-05-05T10:24:35.689Z,97001.47
2023-05-05T10:26:41.841Z,97000.41
2023-05-05T10:28:46.743Z,97003.66
2023-05-05T10:30:53.166Z,97002.84
2023-05-05T10:33:18.222Z,97002.84
2023-05-05T10:35:27.220Z,97000.41
2023-05-05T10:37:30.966Z,96997.94
2023-05-05T10:39:38.271Z,96997.66
2023-05-05T10:41:41.361Z,97003.06
2023-05-05T10:43:44.543Z,96997.66
2023-05-05T10:45:47.608Z,96992.28
2023-05-05T10:47:52.066Z,96993.34
2023-05-05T10:49:59.129Z,97009.50
2023-05-05T10:52:09.865Z,97003.03
2023-05-05T10:54:21.324Z,96996.56
2023-05-05T10:56:32.545Z,96991.19
2023-05-05T10:58:44.116Z,96990.13
2023-05-05T11:00:58.849Z,96987.69
2023-05-05T11:03:21.497Z,96986.63
2023-05-05T11:05:24.768Z,96986.63
2023-05-05T11:07:28.106Z,96984.19
2023-05-05T11:09:31.312Z,96978.81
2023-05-05T11:12:04.130Z,96976.38
2023-05-05T11:14:22.523Z,96968.06
2023-05-05T11:16:47.683Z,96971.81
2023-05-05T11:18:50.638Z,96967.25
2023-05-05T11:21:19.191Z,96967.25
2023-05-05T11:23:22.913Z,96973.44
2023-05-05T11:25:47.331Z,96967.78
2023-05-05T11:28:07.472Z,96967.25
2023-05-05T11:30:13.245Z,96961.06
2023-05-05T11:32:16.687Z,96962.16
2023-05-05T11:34:29.069Z,96950.59
2023-05-05T11:36:41.908Z,96957.09
2023-05-05T11:39:10.356Z,96953.06
2023-05-05T11:41:14.851Z,96957.91
2023-05-05T11:43:21.275Z,96944.47
2023-05-05T11:45:25.550Z,96950.38
2023-05-05T11:47:37.285Z,96949.88
2023-05-05T11:49:40.879Z,96946.13
2023-05-05T11:51:44.484Z,96947.47
2023-05-05T11:53:48.512Z,96945.59
2023-05-05T11:56:06.638Z,96944.50
2023-05-05T11:58:19.119Z,96950.44
2023-05-05T12:00:33.472Z,96942.94
2023-05-05T12:02:36.366Z,96939.41
2023-05-05T12:04:40.955Z,96941.06
2023-05-05T12:06:44.872Z,96932.19
2023-05-05T12:08:47.982Z,96933.53
2023-05-05T12:10:50.795Z,96928.41
2023-05-05T12:12:55.377Z,96934.59
2023-05-05T12:14:58.617Z,96924.41
2023-05-05T12:17:08.803Z,96924.97
2023-05-05T12:19:14.334Z,96920.41
2023-05-05T12:21:17.650Z,96921.81
2023-05-05T12:23:22.841Z,96913.72
2023-05-05T12:25:26.664Z,96922.63
2023-05-05T12:27:29.847Z,96919.38
2023-05-05T12:29:32.910Z,96919.97
2023-05-05T12:31:36.966Z,96914.84
2023-05-05T12:33:42.248Z,96916.22
2023-05-05T12:35:45.109Z,96918.91
2023-05-05T12:37:48.080Z,96917.03
2023-05-05T12:39:52.027Z,96915.94
2023-05-05T12:42:03.544Z,96915.41
2023-05-05T12:44:06.681Z,96910.59
2023-05-05T12:46:12.732Z,96911.38
2023-05-05T12:48:33.522Z,96915.69
2023-05-05T12:50:40.667Z,96908.97
2023-05-05T12:52:44.869Z,96903.03
2023-05-05T12:54:55.157Z,96904.38
2023-05-05T12:56:58.557Z,96902.22
2023-05-05T12:59:02.081Z,96896.84
2023-05-05T13:01:11.203Z,96887.66
2023-05-05T13:03:20.542Z,96886.56
2023-05-05T13:05:33.521Z,96878.50
2023-05-05T13:07:50.342Z,96872.88
2023-05-05T13:09:53.106Z,96861.53
2023-05-05T13:11:56.421Z,96856.97
2023-05-05T13:13:59.175Z,96862.34
2023-05-05T13:16:02.000Z,96861.53
2023-05-05T13:18:05.439Z,96852.66
2023-05-05T13:20:10.020Z,96845.91
2023-05-05T13:22:13.416Z,96849.44
2023-05-05T13:26:23.244Z,96847.28
2023-05-05T13:28:26.005Z,96843.78
2023-05-05T13:30:28.893Z,96840.78
2023-05-05T13:32:32.624Z,96838.09
2023-05-05T13:34:35.799Z,96831.91
2023-05-05T13:36:38.628Z,96833.50
2023-05-05T13:38:41.455Z,96826.81
2023-05-05T13:40:45.672Z,96834.88
2023-05-05T13:42:48.427Z,96830.03
2023-05-05T13:44:51.232Z,96837.03
2023-05-05T13:46:54.287Z,96834.34
2023-05-05T13:48:57.268Z,96824.63
2023-05-05T13:51:00.020Z,96820.03
2023-05-05T13:53:03.069Z,96823.03
2023-05-05T13:55:07.218Z,96813.31
2023-05-05T13:57:12.241Z,96811.19
2023-05-05T13:59:15.262Z,96805.81
2023-05-05T14:01:18.133Z,96811.19
2023-05-05T14:03:20.864Z,96811.44
2023-05-05T14:05:23.865Z,96811.72
2023-05-05T14:07:27.597Z,96806.31
2023-05-05T14:09:30.585Z,96810.06
2023-05-05T14:11:33.575Z,96813.84
2023-05-05T14:13:38.897Z,96812.75
2023-05-05T14:15:41.624Z,96814.38
2023-05-05T14:17:44.530Z,96804.94
2023-05-05T14:19:47.273Z,96810.63
2023-05-05T14:21:50.737Z,96811.16
2023-05-05T14:23:54.566Z,96807.94
2023-05-05T14:25:57.824Z,96803.09
2023-05-05T14:28:03.649Z,96802.53
2023-05-05T14:30:09.640Z,96804.69
2023-05-05T14:32:12.531Z,96802.81
2023-05-05T14:34:15.514Z,96793.09
2023-05-05T14:36:18.435Z,96789.59
2023-05-05T14:38:21.394Z,96789.06
2023-05-05T14:40:24.457Z,96791.72
2023-05-05T14:42:27.848Z,96793.06
2023-05-05T14:44:31.233Z,96794.94
2023-05-05T14:46:35.604Z,96796.84
2023-05-05T14:48:38.826Z,96794.66
2023-05-05T14:50:42.452Z,96800.88
2023-05-05T14:52:45.339Z,96801.16
2023-05-05T14:54:49.021Z,96802.75
2023-05-05T14:56:51.957Z,96802.75
2023-05-05T14:58:54.929Z,96805.16
2023-05-05T15:00:57.964Z,96799.75
2023-05-05T15:03:02.166Z,96797.91
2023-05-05T15:05:05.418Z,96803.28
2023-05-05T15:07:08.137Z,96805.72
2023-05-05T15:09:10.810Z,96797.09
2023-05-05T15:11:13.697Z,96808.69
2023-05-05T15:13:17.168Z,96817.06
2023-05-05T15:15:20.207Z,96814.09
2023-05-05T15:17:22.922Z,96814.88
2023-05-05T15:19:27.272Z,96811.38
2023-05-05T15:21:29.974Z,96810.56
2023-05-05T15:23:34.730Z,96813.56
2023-05-05T15:25:37.818Z,96811.13
2023-05-05T15:27:40.695Z,96814.91
2023-05-05T15:29:43.398Z,96810.03
2023-05-05T15:31:46.241Z,96818.69
2023-05-05T15:33:49.478Z,96815.72
2023-05-05T15:35:53.713Z,96814.09
2023-05-05T15:37:56.555Z,96817.06
2023-05-05T15:39:59.979Z,96816.25
2023-05-05T15:42:03.791Z,96806.28
2023-05-05T15:44:07.199Z,96808.97
2023-05-05T15:46:10.254Z,96805.75
2023-05-05T15:48:12.929Z,96802.53
2023-05-05T15:50:16.098Z,96809.53
2023-05-05T15:52:20.279Z,96810.63
2023-05-05T15:54:22.985Z,96814.94
2023-05-05T15:56:27.287Z,96823.56
2023-05-05T15:58:30.038Z,96824.91
2023-05-05T16:00:32.561Z,96826.53
2023-05-05T16:02:35.418Z,96834.63
2023-05-05T16:04:38.211Z,96824.91
2023-05-05T16:06:41.031Z,96831.38
2023-05-05T16:08:47.630Z,96815.44
2023-05-05T16:10:50.759Z,96834.31
2023-05-05T16:12:53.491Z,96826.25
2023-05-05T16:14:56.354Z,96827.88
2023-05-05T16:17:01.026Z,96827.88
2023-05-05T16:19:04.374Z,96817.09
2023-05-05T16:21:07.155Z,96825.72
2023-05-05T16:23:09.895Z,96825.97
2023-05-05T16:25:14.178Z,96826.50
2023-05-05T16:27:17.519Z,96825.13
2023-05-05T16:29:20.204Z,96827.59
2023-05-05T16:31:23.088Z,96829.47
2023-05-05T16:33:27.107Z,96823.00
2023-05-05T16:35:29.820Z,96828.41
2023-05-05T16:37:32.546Z,96836.22
2023-05-05T16:39:40.035Z,96830.00
2023-05-05T16:41:44.287Z,96828.94
2023-05-05T16:43:47.285Z,96826.22
2023-05-05T16:45:50.351Z,96831.34
2023-05-05T16:47:55.413Z,96834.31
2023-05-05T16:49:58.850Z,96828.13
2023-05-05T16:52:01.570Z,96826.22
2023-05-05T16:56:07.442Z,96828.38
2023-05-05T16:58:12.366Z,96827.28
2023-05-05T17:00:15.881Z,96826.22
2023-05-05T17:02:18.701Z,96824.03
2023-05-05T17:04:21.550Z,96820.53
2023-05-05T17:06:24.367Z,96822.44
2023-05-05T17:08:27.210Z,96817.59
2023-05-05T17:10:30.476Z,96824.88
2023-05-05T17:12:33.241Z,96827.56
2023-05-05T17:14:37.888Z,96822.41
2023-05-05T17:16:41.244Z,96832.69
2023-05-05T17:18:44.193Z,96831.06
2023-05-05T17:20:47.021Z,96824.88
2023-05-05T17:22:49.756Z,96826.19
2023-05-05T17:24:52.437Z,96824.59
2023-05-05T17:26:55.183Z,96830.25
2023-05-05T17:28:58.260Z,96831.34
2023-05-05T17:31:02.443Z,96833.78
2023-05-05T17:33:05.375Z,96829.19
2023-05-05T17:35:08.925Z,96844.03
2023-05-05T17:37:12.018Z,96837.00
2023-05-05T17:39:14.772Z,96836.75
2023-05-05T17:41:18.498Z,96844.31
2023-05-05T17:43:21.125Z,96844.59
2023-05-05T17:45:23.594Z,96850.25
2023-05-05T17:47:27.959Z,96852.41
2023-05-05T17:49:30.827Z,96855.38
2023-05-05T17:51:33.550Z,96852.94
2023-05-05T17:53:36.185Z,96850.53
2023-05-05T17:55:38.874Z,96854.31
2023-05-05T17:57:41.636Z,96854.84
2023-05-05T17:59:44.496Z,96866.97
2023-05-05T18:01:47.307Z,96866.16
2023-05-05T18:03:52.387Z,96868.84
2023-05-05T18:05:55.486Z,96866.44
2023-05-05T18:07:58.596Z,96865.91
2023-05-05T18:10:01.413Z,96871.28
2023-05-05T18:12:04.604Z,96879.66
2023-05-05T18:14:07.134Z,96884.22
2023-05-05T18:16:09.853Z,96885.59
2023-05-05T18:18:12.587Z,96880.72
2023-05-05T18:20:17.737Z,96881.25
2023-05-05T18:22:21.741Z,96894.16
2023-05-05T18:24:24.825Z,96891.75
2023-05-05T18:26:27.541Z,96894.72
2023-05-05T18:28:30.409Z,96894.19
2023-05-05T18:30:33.467Z,96897.91
2023-05-05T18:32:36.344Z,96902.78
2023-05-05T18:34:39.220Z,96899.53
2023-05-05T18:36:43.503Z,96901.72
2023-05-05T18:38:46.347Z,96905.47
2023-05-05T18:40:49.129Z,96900.38
2023-05-05T18:42:52.188Z,96897.38
2023-05-05T18:44:55.034Z,96903.03
2023-05-05T18:46:57.782Z,96903.31
2023-05-05T18:49:00.753Z,96900.88
2023-05-05T18:51:03.911Z,96896.84
2023-05-05T18:53:08.110Z,96901.41
2023-05-05T18:55:11.608Z,96901.69
2023-05-05T18:57:14.893Z,96903.56
2023-05-05T18:59:17.752Z,96905.44
2023-05-05T19:01:21.005Z,96904.63
2023-05-05T19:03:24.227Z,96900.03
2023-05-05T19:05:28.078Z,96908.97
2023-05-05T19:07:35.416Z,96912.47
2023-05-05T19:09:40.018Z,96908.13
2023-05-05T19:11:42.974Z,96912.72
2023-05-05T19:13:45.778Z,96919.97
2023-05-05T19:15:49.248Z,96912.72
2023-05-05T19:17:52.034Z,96924.28
2023-05-05T19:19:54.938Z,96917.28
2023-05-05T19:21:57.966Z,96921.59
2023-05-05T19:24:00.978Z,96919.19
2023-05-05T19:26:05.682Z,96921.06
2023-05-05T19:28:08.558Z,96926.19
2023-05-05T19:30:12.247Z,96930.75
2023-05-05T19:32:15.528Z,96930.75
2023-05-05T19:34:18.357Z,96926.44
2023-05-05T19:36:21.356Z,96921.34
2023-05-05T19:38:24.225Z,96928.59
2023-05-05T19:40:27.307Z,96935.88
2023-05-05T19:42:31.378Z,96936.13
2023-05-05T19:44:34.211Z,96933.69
2023-05-05T19:46:37.025Z,96935.56
2023-05-05T19:48:40.050Z,96932.34
2023-05-05T19:50:42.841Z,96930.72
2023-05-05T19:52:45.701Z,96936.13
2023-05-05T19:54:48.425Z,96932.88
2023-05-05T19:56:55.277Z,96929.66
2023-05-05T19:59:01.475Z,96935.03
2023-05-05T20:01:04.287Z,96929.91
2023-05-05T20:03:08.742Z,96938.81
2023-05-05T20:05:13.770Z,96940.13
2023-05-05T20:07:17.803Z,96938.50
2023-05-05T20:09:20.703Z,96938.78
2023-05-05T20:11:23.723Z,96935.53
2023-05-05T20:13:26.473Z,96940.38
2023-05-05T20:15:31.381Z,96939.56
2023-05-05T20:17:35.509Z,96937.97
2023-05-05T20:19:38.442Z,96941.72
2023-05-05T20:21:41.394Z,96934.69
2023-05-05T20:23:45.094Z,96941.97
2023-05-05T20:25:48.273Z,96942.50
2023-05-05T20:27:52.098Z,96936.56
2023-05-05T20:29:54.879Z,96938.72
2023-05-05T20:31:59.180Z,96939.25
2023-05-05T20:34:02.039Z,96944.63
2023-05-05T20:36:05.221Z,96934.91
2023-05-05T20:38:09.591Z,96938.91
2023-05-05T20:40:13.494Z,96942.16
2023-05-05T20:42:16.474Z,96929.22
2023-05-05T20:44:19.354Z,96941.88
2023-05-05T20:46:22.186Z,96940.47
2023-05-05T20:48:26.304Z,96943.44
2023-05-05T20:50:29.123Z,96949.09
2023-05-05T20:52:31.874Z,96945.59
2023-05-05T20:54:34.784Z,96952.03
2023-05-05T20:56:37.560Z,96961.19
2023-05-05T20:58:40.374Z,96956.88
2023-05-05T21:00:43.215Z,96949.09
2023-05-05T21:02:46.167Z,96951.50
2023-05-05T21:04:50.478Z,96960.66
2023-05-05T21:07:12.790Z,96960.38
2023-05-05T21:09:35.160Z,96955.81
2023-05-05T21:11:56.683Z,96953.66
2023-05-05T21:14:18.034Z,96950.97
2023-05-05T21:16:21.897Z,96950.16
2023-05-05T21:18:25.816Z,96950.16
